Time;durP1;ratioP1;P1;durP2;ratioP2;P2;SDS_P1;SDS_P2;PMS_P1;PMS_P2;Temp;Humidity;BMP_temperature;BMP_pressure;BME280_temperature;BME280_humidity;BME280_pressure;Samples;Min_cycle;Max_cycle;Signal;HPM_P1;HPM_P2
2022/08/14 00:01:33;;;;;;;;;7.00;7.00;;;;;23.68;36.46;100385.56;5085836;28;45226;-74
2022/08/14 00:03:58;;;;;;;;;7.67;7.00;;;;;23.62;36.48;100377.72;5085938;28;45513;-73
2022/08/14 00:06:24;;;;;;;;;6.00;6.00;;;;;23.50;36.65;100357.09;5074621;28;45397;-73
2022/08/14 00:08:49;;;;;;;;;6.33;5.67;;;;;23.52;36.52;100367.69;5081451;28;47352;-74
2022/08/14 00:11:14;;;;;;;;;6.00;6.00;;;;;23.45;36.26;100362.50;5085947;28;45274;-74
2022/08/14 00:13:40;;;;;;;;;6.33;6.33;;;;;23.43;36.55;100367.38;5085657;28;45381;-74
2022/08/14 00:16:05;;;;;;;;;6.67;6.67;;;;;23.39;36.98;100356.28;5089885;27;45474;-74
2022/08/14 00:18:31;;;;;;;;;7.67;7.67;;;;;23.25;36.99;100358.66;5092732;27;46364;-73
2022/08/14 00:20:59;;;;;;;;;8.00;8.00;;;;;23.25;36.90;100358.66;5080230;28;45292;-74
2022/08/14 00:23:25;;;;;;;;;6.00;6.00;;;;;23.21;37.42;100352.16;5065515;28;45279;-74
2022/08/14 00:25:53;;;;;;;;;6.33;6.33;;;;;23.17;36.71;100351.88;5079267;28;45468;-74
2022/08/14 00:28:24;;;;;;;;;6.67;6.33;;;;;23.19;37.26;100352.44;5075192;28;45400;-73
2022/08/14 00:30:50;;;;;;;;;6.33;6.33;;;;;23.16;37.51;100339.41;5085403;28;45333;-73
2022/08/14 00:33:15;;;;;;;;;6.00;6.00;;;;;23.15;37.20;100336.97;5085621;28;45760;-73
2022/08/14 00:35:40;;;;;;;;;7.33;7.33;;;;;23.18;37.62;100323.72;5085180;28;45547;-74
2022/08/14 00:38:06;;;;;;;;;6.00;6.00;;;;;23.16;37.70;100322.31;5085263;28;45354;-74
2022/08/14 00:40:31;;;;;;;;;7.33;7.33;;;;;23.17;37.21;100322.06;5077054;28;45323;-73
2022/08/14 00:42:57;;;;;;;;;7.67;7.00;;;;;23.18;37.45;100315.59;5078398;28;45359;-74
2022/08/14 00:45:22;;;;;;;;;6.33;6.33;;;;;23.15;37.17;100315.28;5083811;28;45487;-74
2022/08/14 00:47:48;;;;;;;;;6.00;6.00;;;;;23.17;37.16;100322.06;5081755;28;45344;-74
2022/08/14 00:50:17;;;;;;;;;6.00;6.00;;;;;23.18;37.61;100318.28;5081726;28;45761;-73
2022/08/14 00:52:45;;;;;;;;;7.00;7.00;;;;;23.19;36.81;100313.66;5082109;28;45466;-73
2022/08/14 00:55:12;;;;;;;;;7.33;7.33;;;;;23.19;36.88;100317.19;5081509;28;45638;-73
2022/08/14 00:57:38;;;;;;;;;9.67;8.00;;;;;23.19;37.20;100319.09;5081689;28;46002;-74
2022/08/14 01:00:13;;;;;;;;;6.00;6.00;;;;;23.19;37.85;100321.78;5081812;28;45612;-73
2022/08/14 01:02:42;;;;;;;;;9.33;9.33;;;;;23.19;37.27;100319.91;5082018;28;45251;-73
2022/08/14 01:05:22;;;;;;;;;8.67;8.67;;;;;23.16;37.41;100312.31;5080390;28;45400;-73
2022/08/14 01:07:58;;;;;;;;;8.00;8.00;;;;;23.19;37.69;100313.66;5070180;28;45322;-74
2022/08/14 01:10:49;;;;;;;;;6.00;6.00;;;;;23.24;37.48;100304.72;5081739;28;45258;-73
2022/08/14 01:13:15;;;;;;;;;8.33;7.00;;;;;23.21;37.12;100297.97;5081540;28;45445;-74
2022/08/14 01:15:47;;;;;;;;;6.33;6.33;;;;;23.11;37.76;100279.81;5081193;28;45267;-73
2022/08/14 01:21:05;;;;;;;;;6.67;6.67;;;;;23.16;37.42;100287.09;5081089;28;45222;-73
2022/08/14 01:23:33;;;;;;;;;8.00;6.67;;;;;23.13;37.92;100276.81;5081443;28;45222;-74
2022/08/14 01:25:59;;;;;;;;;7.00;7.00;;;;;23.10;37.96;100274.66;5081313;28;45351;-73
2022/08/14 01:28:30;;;;;;;;;6.00;4.33;;;;;23.07;37.78;100263.25;5081207;28;45421;-73
2022/08/14 01:30:56;;;;;;;;;7.67;7.33;;;;;23.09;37.79;100265.69;5081345;28;45173;-73
2022/08/14 01:33:30;;;;;;;;;6.00;6.00;;;;;23.06;37.57;100264.34;5081213;28;45400;-73
2022/08/14 01:35:57;;;;;;;;;10.00;8.67;;;;;23.01;37.67;100258.13;5068547;28;45514;-73
2022/08/14 01:38:33;;;;;;;;;7.00;7.00;;;;;22.96;38.13;100250.81;5065308;28;45369;-74
2022/08/14 01:41:11;;;;;;;;;7.67;7.00;;;;;23.00;37.83;100265.44;5081352;28;45406;-74
2022/08/14 01:43:58;;;;;;;;;7.00;5.67;;;;;22.93;37.50;100265.69;5081016;28;45355;-74
2022/08/14 01:46:24;;;;;;;;;6.33;6.33;;;;;22.95;38.29;100260.81;5081052;28;45235;-73
2022/08/14 01:48:51;;;;;;;;;6.33;6.33;;;;;22.96;37.92;100267.06;5074394;28;45330;-73
2022/08/14 01:51:21;;;;;;;;;6.67;6.67;;;;;22.99;37.72;100274.66;5073618;28;45215;-73
2022/08/14 01:53:51;;;;;;;;;7.67;7.67;;;;;22.98;37.63;100264.06;5080764;28;45459;-74
2022/08/14 01:56:17;;;;;;;;;5.00;5.00;;;;;23.03;37.60;100264.06;5080736;28;45319;-73
2022/08/14 01:58:48;;;;;;;;;6.67;6.67;;;;;23.06;38.12;100261.66;5080232;28;46600;-73
2022/08/14 02:01:18;;;;;;;;;6.33;6.00;;;;;23.09;37.59;100265.69;5080957;28;45173;-73
2022/08/14 02:03:45;;;;;;;;;6.00;6.00;;;;;23.10;37.54;100250.25;5077949;28;45369;-73
2022/08/14 02:06:12;;;;;;;;;5.00;5.00;;;;;23.12;38.08;100257.03;5069959;28;45334;-73
2022/08/14 02:08:39;;;;;;;;;6.33;6.33;;;;;23.10;38.04;100248.34;5080388;28;45517;-73
2022/08/14 02:14:06;;;;;;;;;5.67;5.67;;;;;23.07;38.01;100255.13;5075351;28;45330;-74
2022/08/14 02:16:35;;;;;;;;;5.00;5.00;;;;;23.01;38.26;100250.78;5088350;27;45400;-73
2022/08/14 02:19:05;;;;;;;;;5.00;5.00;;;;;22.96;38.11;100253.50;5083214;27;45325;-73
2022/08/14 02:21:31;;;;;;;;;5.33;5.33;;;;;22.90;38.56;100249.97;5080426;28;45468;-74
2022/08/14 02:24:00;;;;;;;;;6.00;6.00;;;;;22.86;37.98;100246.16;5078658;28;45287;-74
2022/08/14 02:26:29;;;;;;;;;7.00;7.00;;;;;22.84;38.13;100237.53;5068670;28;45201;-74
2022/08/14 02:29:01;;;;;;;;;6.00;6.00;;;;;22.77;38.51;100221.50;5080153;28;45471;-73
2022/08/14 02:31:31;;;;;;;;;6.33;6.00;;;;;22.74;37.93;100216.63;5080408;28;45290;-74
2022/08/14 02:33:58;;;;;;;;;8.00;8.00;;;;;22.73;38.00;100217.72;5070554;27;45438;-74
2022/08/14 02:36:24;;;;;;;;;7.67;7.67;;;;;22.72;38.42;100218.00;5061941;28;45455;-73
2022/08/14 02:38:49;;;;;;;;;8.00;8.00;;;;;22.74;38.74;100229.38;5080242;28;46307;-74
2022/08/14 02:41:15;;;;;;;;;5.00;5.00;;;;;22.71;38.92;100222.59;5080187;28;45278;-73
2022/08/14 02:43:41;;;;;;;;;5.67;5.67;;;;;22.70;38.79;100216.38;5080574;28;45273;-73
2022/08/14 02:46:08;;;;;;;;;6.67;6.67;;;;;22.70;38.92;100219.09;5080270;28;45223;-73
2022/08/14 02:48:38;;;;;;;;;9.00;7.00;;;;;22.68;39.01;100209.56;5079937;28;45782;-73
2022/08/14 02:51:06;;;;;;;;;7.33;7.33;;;;;22.69;38.76;100212.03;5079847;28;45294;-73
2022/08/14 02:53:32;;;;;;;;;6.00;6.00;;;;;22.67;38.27;100210.66;5079783;28;45392;-73
2022/08/14 02:55:59;;;;;;;;;8.00;7.00;;;;;22.63;39.03;100199.56;5079895;28;45384;-73
2022/08/14 02:58:25;;;;;;;;;6.33;5.00;;;;;22.65;39.14;100199.28;5079884;28;45602;-73
2022/08/14 03:00:51;;;;;;;;;7.00;7.00;;;;;22.62;38.47;100181.69;5080034;28;45377;-73
2022/08/14 03:03:17;;;;;;;;;5.67;5.67;;;;;22.65;38.94;100189.28;5080153;28;45376;-73
2022/08/14 03:05:43;;;;;;;;;7.00;7.00;;;;;22.69;38.65;100189.56;5065352;28;45521;-74
2022/08/14 03:08:11;;;;;;;;;7.67;7.67;;;;;22.68;38.37;100196.03;5079633;28;46353;-73
2022/08/14 03:10:37;;;;;;;;;6.00;6.00;;;;;22.64;38.52;100190.38;5079129;28;45370;-73
2022/08/14 03:13:03;;;;;;;;;7.00;7.00;;;;;22.64;39.19;100198.50;5079987;28;45223;-73
2022/08/14 03:15:53;;;;;;;;;5.33;5.33;;;;;22.59;39.04;100194.97;5079460;28;45304;-73
2022/08/14 03:18:22;;;;;;;;;9.33;7.33;;;;;22.59;39.19;100205.78;5088199;27;46988;-73
2022/08/14 03:20:48;;;;;;;;;5.33;5.33;;;;;22.54;39.30;100204.66;5061266;28;45274;-73
2022/08/14 03:23:13;;;;;;;;;6.00;6.00;;;;;22.50;39.58;100211.69;5068106;28;45515;-73
2022/08/14 03:25:39;;;;;;;;;6.33;6.33;;;;;22.47;39.99;100200.59;5079432;28;45424;-74
2022/08/14 03:28:07;;;;;;;;;6.00;6.00;;;;;22.45;39.95;100201.66;5079540;28;46173;-73
2022/08/14 03:30:33;;;;;;;;;5.33;5.00;;;;;22.43;40.04;100198.44;5079424;28;45338;-74
2022/08/14 03:32:58;;;;;;;;;6.00;6.00;;;;;22.42;39.82;100201.41;5073585;28;45349;-73
2022/08/14 03:35:25;;;;;;;;;6.00;6.00;;;;;22.41;40.04;100211.41;5067332;28;45318;-74
2022/08/14 03:37:53;;;;;;;;;5.00;5.00;;;;;22.38;40.13;100198.41;5079147;28;47516;-74
2022/08/14 03:40:20;;;;;;;;;5.67;5.67;;;;;22.40;40.48;100208.97;5079442;28;45347;-74
2022/08/14 03:42:46;;;;;;;;;7.00;7.00;;;;;22.31;39.97;100195.13;5079445;28;45300;-74
2022/08/14 03:45:12;;;;;;;;;7.00;6.33;;;;;22.32;40.26;100197.59;5074460;28;45685;-74
2022/08/14 03:47:42;;;;;;;;;7.67;7.67;;;;;22.27;40.29;100205.66;5070088;28;45391;-74
2022/08/14 03:50:09;;;;;;;;;6.00;6.00;;;;;22.25;40.78;100209.72;5075629;28;45230;-73
2022/08/14 03:52:39;;;;;;;;;5.33;5.33;;;;;22.16;40.29;100212.97;5068032;28;45346;-73
2022/08/14 03:55:07;;;;;;;;;6.33;6.33;;;;;22.12;40.43;100211.84;5078871;28;45504;-73
2022/08/14 03:57:35;;;;;;;;;5.00;4.67;;;;;22.13;40.21;100218.09;5079846;28;45666;-75
2022/08/14 04:00:07;;;;;;;;;6.67;6.00;;;;;22.10;40.63;100218.59;5079396;28;45390;-73
2022/08/14 04:02:33;;;;;;;;;7.67;7.67;;;;;22.08;40.64;100216.16;5079481;28;45273;-73
2022/08/14 04:05:00;;;;;;;;;8.67;7.67;;;;;22.12;40.36;100228.09;5087942;27;46170;-73
2022/08/14 04:07:26;;;;;;;;;7.00;7.00;;;;;22.13;39.90;100232.44;5073178;28;45551;-73
2022/08/14 04:09:51;;;;;;;;;6.00;6.00;;;;;22.11;40.08;100228.34;5069326;28;45984;-73
2022/08/14 04:12:18;;;;;;;;;6.00;6.00;;;;;22.07;40.10;100234.31;5078937;28;45285;-73
2022/08/14 04:14:44;;;;;;;;;7.00;7.00;;;;;22.09;40.58;100219.69;5079024;28;45320;-74
2022/08/14 04:17:10;;;;;;;;;7.00;7.00;;;;;22.06;40.39;100224.53;5078695;28;46433;-73
2022/08/14 04:19:36;;;;;;;;;7.67;7.67;;;;;22.07;39.80;100215.38;5078736;28;45218;-73
2022/08/14 04:22:02;;;;;;;;;6.00;6.00;;;;;22.09;39.99;100219.69;5081320;28;45308;-73
2022/08/14 04:24:28;;;;;;;;;7.67;7.67;;;;;22.05;40.57;100220.22;5082317;28;45448;-74
2022/08/14 04:26:54;;;;;;;;;7.00;7.00;;;;;22.03;40.14;100211.53;5089897;27;46958;-73
2022/08/14 04:29:19;;;;;;;;;7.00;7.00;;;;;22.06;40.00;100224.53;5082163;28;45276;-73
2022/08/14 04:31:45;;;;;;;;;7.00;7.00;;;;;22.10;39.88;100227.56;5082387;28;45403;-73
2022/08/14 04:34:11;;;;;;;;;6.33;5.33;;;;;22.11;40.21;100217.53;5082084;28;45615;-73
2022/08/14 04:43:34;;;;;;;;;7.00;7.00;;;;;22.13;39.97;100224.31;5067543;28;45588;-74
2022/08/14 04:44:51;;;;;;;;;7.67;7.67;;;;;22.14;40.05;100208.88;5081074;28;45355;-75
2022/08/14 04:50:02;;;;;;;;;6.67;6.67;;;;;22.15;40.32;100199.69;5079229;28;45308;-76
2022/08/14 04:52:28;;;;;;;;;7.33;7.33;;;;;22.10;40.19;100186.97;5083353;28;45286;-76
2022/08/14 04:54:53;;;;;;;;;7.00;7.00;;;;;22.12;41.04;100189.41;5068118;28;45391;-76
2022/08/14 04:57:18;;;;;;;;;6.33;5.33;;;;;22.10;40.77;100188.84;5083155;28;45274;-76
2022/08/14 04:59:44;;;;;;;;;5.67;5.00;;;;;22.12;40.43;100202.94;5083327;28;45327;-76
2022/08/14 05:02:09;;;;;;;;;8.33;8.33;;;;;22.10;40.54;100194.25;5069129;28;45535;-75
2022/08/14 05:04:35;;;;;;;;;8.67;8.67;;;;;22.07;40.36;100201.84;5082882;28;45611;-76
2022/08/14 05:07:00;;;;;;;;;7.00;5.67;;;;;22.05;40.38;100190.47;5069702;28;45335;-75
2022/08/14 05:09:26;;;;;;;;;7.00;7.00;;;;;22.09;40.57;100198.88;5083498;28;45369;-76
2022/08/14 05:11:51;;;;;;;;;6.00;6.00;;;;;22.08;40.61;100194.53;5082612;28;45304;-76
2022/08/14 05:14:18;;;;;;;;;8.33;6.67;;;;;22.15;40.55;100191.59;5083276;28;45416;-76
2022/08/14 05:16:45;;;;;;;;;7.00;7.00;;;;;22.16;40.57;100194.03;5092619;27;46453;-76
2022/08/14 05:19:12;;;;;;;;;8.00;8.00;;;;;22.16;40.93;100182.38;5082262;27;45302;-73
2022/08/14 05:21:38;;;;;;;;;11.00;11.00;;;;;22.19;40.36;100187.25;5081620;28;45422;-73
2022/08/14 05:24:04;;;;;;;;;7.00;7.00;;;;;22.15;40.36;100183.47;5093548;27;47147;-73
2022/08/14 05:26:29;;;;;;;;;8.67;8.67;;;;;22.18;40.46;100191.06;5081496;28;46292;-73
2022/08/14 05:28:55;;;;;;;;;7.00;7.00;;;;;22.08;40.38;100175.59;5091641;27;45268;-73
2022/08/14 05:31:20;;;;;;;;;10.00;10.00;;;;;22.10;41.04;100184.25;5081266;28;45502;-74
2022/08/14 05:33:46;;;;;;;;;8.67;8.33;;;;;22.11;40.61;100187.75;5081064;27;45387;-73
2022/08/14 05:36:12;;;;;;;;;9.00;9.00;;;;;22.04;41.06;100188.84;5066797;27;45635;-73
2022/08/14 05:38:43;;;;;;;;;9.00;8.00;;;;;22.00;41.19;100185.03;5074543;28;45286;-74
2022/08/14 05:41:12;;;;;;;;;9.00;9.00;;;;;22.01;41.39;100178.56;5074710;28;45295;-73
2022/08/14 05:43:39;;;;;;;;;7.00;7.00;;;;;21.99;40.73;100188.81;5081071;28;45376;-73
2022/08/14 05:46:05;;;;;;;;;9.33;8.67;;;;;21.96;41.58;100191.25;5081097;28;45501;-73
2022/08/14 05:48:31;;;;;;;;;7.00;7.00;;;;;21.89;42.26;100176.06;5080943;28;45353;-76
2022/08/14 05:50:57;;;;;;;;;8.00;8.00;;;;;21.90;41.60;100174.97;5080974;28;45366;-75
2022/08/14 05:53:24;;;;;;;;;9.00;9.00;;;;;21.87;42.07;100172.81;5080914;28;45383;-75
2022/08/14 05:55:49;;;;;;;;;10.00;10.00;;;;;21.85;42.10;100171.44;5068057;28;45733;-75
2022/08/14 05:58:15;;;;;;;;;9.00;9.00;;;;;21.87;41.83;100186.31;5075571;28;45221;-75
2022/08/14 06:00:43;;;;;;;;;7.00;7.00;;;;;21.82;42.07;100176.31;5081107;28;45224;-75
2022/08/14 06:03:18;;;;;;;;;8.67;8.67;;;;;21.86;42.04;100179.31;5080821;28;45343;-76
2022/08/14 06:05:45;;;;;;;;;9.00;9.00;;;;;21.82;42.20;100179.00;5073008;28;46524;-75
2022/08/14 06:08:20;;;;;;;;;19.00;19.00;;;;;21.86;42.20;100179.31;5079900;27;45412;-77
2022/08/14 06:10:46;;;;;;;;;20.00;19.00;;;;;21.90;42.92;100177.69;5068700;27;45357;-78
2022/08/14 06:13:12;;;;;;;;;17.00;14.00;;;;;21.94;42.30;100172.56;5080568;28;45413;-78
2022/08/14 06:15:37;;;;;;;;;14.33;14.33;;;;;22.01;43.05;100167.72;5094808;27;46364;-76
2022/08/14 06:18:03;;;;;;;;;10.67;10.33;;;;;22.05;42.56;100174.22;5090626;27;45341;-76
2022/08/14 06:20:29;;;;;;;;;9.33;9.33;;;;;22.18;43.15;100167.50;5080393;28;45295;-74
2022/08/14 06:22:54;;;;;;;;;8.33;8.33;;;;;22.24;42.96;100168.31;5079591;28;45502;-75
2022/08/14 06:25:20;;;;;;;;;8.00;8.00;;;;;22.33;42.70;100160.50;5080485;27;46361;-75
2022/08/14 06:27:47;;;;;;;;;9.00;9.00;;;;;22.38;42.68;100151.56;5080310;28;45353;-75
2022/08/14 06:30:19;;;;;;;;;7.00;6.33;;;;;22.48;42.73;100162.44;5080559;28;45400;-75
2022/08/14 06:32:45;;;;;;;;;7.00;7.00;;;;;22.45;42.51;100149.44;5080161;28;45216;-76
2022/08/14 06:35:19;;;;;;;;;8.67;8.00;;;;;22.62;42.06;100168.16;5079976;28;45240;-76
2022/08/14 06:37:51;;;;;;;;;6.00;6.00;;;;;22.68;41.27;100167.06;5080127;28;45448;-76
2022/08/14 06:40:20;;;;;;;;;7.33;7.33;;;;;22.68;41.90;100142.69;5080369;28;45385;-76
2022/08/14 06:42:45;;;;;;;;;7.00;6.33;;;;;22.79;41.13;100162.47;5080116;28;45329;-75
2022/08/14 06:45:11;;;;;;;;;8.00;7.00;;;;;22.91;41.03;100170.34;5078605;28;45261;-75
2022/08/14 06:47:39;;;;;;;;;6.00;5.33;;;;;22.98;40.77;100164.63;5080116;28;45236;-75
2022/08/14 06:50:07;;;;;;;;;7.67;7.67;;;;;23.04;41.44;100155.41;5079918;28;45311;-76
2022/08/14 06:52:33;;;;;;;;;6.33;6.33;;;;;23.16;40.52;100157.00;5079843;28;45487;-76
2022/08/14 06:54:58;;;;;;;;;6.00;6.00;;;;;23.19;40.43;100156.47;5079535;28;45431;-76
2022/08/14 06:57:24;;;;;;;;;7.00;7.00;;;;;23.30;40.71;100149.13;5079967;28;45157;-75
2022/08/14 06:59:50;;;;;;;;;8.00;8.00;;;;;23.39;40.03;100158.38;5080216;28;45160;-75
2022/08/14 07:07:43;;;;;;;;;8.67;7.67;;;;;23.55;40.00;100182.72;5078485;28;45362;-76
2022/08/14 07:10:10;;;;;;;;;8.00;8.00;;;;;23.63;40.24;100194.91;5079919;27;45641;-76
2022/08/14 07:12:35;;;;;;;;;7.00;7.00;;;;;23.68;39.49;100189.47;5068625;28;45292;-75
2022/08/14 07:15:01;;;;;;;;;8.00;8.00;;;;;23.75;40.09;100205.44;5076263;28;45309;-75
2022/08/14 07:17:27;;;;;;;;;8.00;8.00;;;;;23.72;39.88;100193.25;5086386;27;45417;-75
2022/08/14 07:19:53;;;;;;;;;7.00;7.00;;;;;23.79;39.83;100188.34;5079500;28;45412;-75
2022/08/14 07:22:19;;;;;;;;;7.67;6.67;;;;;23.80;40.11;100189.16;5079775;28;45371;-74
2022/08/14 07:24:44;;;;;;;;;8.00;8.00;;;;;23.87;40.05;100188.84;5079555;28;45987;-75
2022/08/14 07:27:10;;;;;;;;;8.00;6.00;;;;;23.88;39.82;100185.84;5079501;28;45555;-75
2022/08/14 07:29:35;;;;;;;;;6.00;6.00;;;;;23.96;39.70;100189.91;5079897;28;45512;-74
2022/08/14 07:32:00;;;;;;;;;7.00;7.00;;;;;24.02;39.80;100194.22;5070990;28;45603;-76
2022/08/14 07:34:26;;;;;;;;;7.33;7.33;;;;;24.12;39.25;100198.78;5079162;27;45342;-76
2022/08/14 07:36:51;;;;;;;;;7.33;7.33;;;;;24.16;38.79;100199.06;5079318;27;45306;-76
2022/08/14 07:39:17;;;;;;;;;7.00;7.00;;;;;24.25;39.01;100204.72;5079488;28;45339;-75
2022/08/14 07:41:43;;;;;;;;;8.00;7.67;;;;;24.27;39.18;100203.34;5079213;28;45393;-78
2022/08/14 07:44:10;;;;;;;;;7.33;7.33;;;;;24.33;38.76;100191.38;5079510;28;45338;-76
2022/08/14 07:46:36;;;;;;;;;8.50;7.00;;;;;24.40;39.01;100201.09;5077309;28;45594;-75
2022/08/14 07:49:02;;;;;;;;;7.67;7.67;;;;;24.40;39.22;100168.53;5079254;27;45270;-76
2022/08/14 07:51:28;;;;;;;;;7.33;7.33;;;;;24.48;38.33;100162.47;5077903;28;45521;-76
2022/08/14 07:53:54;;;;;;;;;5.33;5.33;;;;;24.53;37.88;100159.75;5078479;28;46215;-75
2022/08/14 07:56:19;;;;;;;;;6.67;6.67;;;;;24.60;37.91;100153.97;5071071;28;45470;-76
2022/08/14 07:58:44;;;;;;;;;8.67;8.00;;;;;24.66;38.35;100169.16;5064843;28;45524;-75
2022/08/14 08:01:11;;;;;;;;;6.67;6.67;;;;;24.75;37.80;100169.34;5061536;28;45393;-75
2022/08/14 08:03:41;;;;;;;;;6.67;6.00;;;;;24.82;37.60;100174.47;5077817;28;46280;-76
2022/08/14 08:06:07;;;;;;;;;7.00;7.00;;;;;24.92;37.46;100170.88;5082278;28;45322;-76
2022/08/14 08:08:32;;;;;;;;;7.67;7.67;;;;;24.95;37.30;100165.69;5082594;28;45199;-76
2022/08/14 08:10:59;;;;;;;;;9.33;7.67;;;;;25.06;37.32;100182.72;5073156;28;45286;-76
2022/08/14 08:13:25;;;;;;;;;8.00;8.00;;;;;25.12;37.20;100177.22;5075303;28;45472;-76
2022/08/14 08:15:55;;;;;;;;;7.00;7.00;;;;;25.21;36.76;100187.19;5084232;27;45297;-77
2022/08/14 08:18:21;;;;;;;;;9.00;9.00;;;;;25.25;36.71;100184.69;5091280;27;45192;-77
2022/08/14 08:20:49;;;;;;;;;6.67;6.67;;;;;25.27;35.99;100182.50;5079262;28;45801;-77
2022/08/14 08:23:17;;;;;;;;;8.33;8.33;;;;;25.32;36.74;100187.88;5081800;28;45428;-77
2022/08/14 08:25:46;;;;;;;;;9.00;9.00;;;;;25.40;36.77;100204.66;5082002;27;45426;-77
2022/08/14 08:28:20;;;;;;;;;9.00;9.00;;;;;25.51;36.67;100210.81;5082261;28;45260;-77
2022/08/14 08:30:50;;;;;;;;;8.67;8.67;;;;;25.50;36.27;100204.56;5081749;28;45296;-77
2022/08/14 08:33:19;;;;;;;;;6.67;6.67;;;;;25.61;36.14;100209.94;5067512;28;45638;-75
2022/08/14 08:35:46;;;;;;;;;4.00;4.00;;;;;25.66;35.63;100205.25;5067624;28;45516;-75
2022/08/14 08:38:14;;;;;;;;;7.67;6.67;;;;;25.76;35.23;100207.03;5081939;27;45252;-75
2022/08/14 08:40:42;;;;;;;;;6.33;6.33;;;;;25.84;35.46;100206.41;5081982;28;45349;-75
2022/08/14 08:43:16;;;;;;;;;6.67;6.67;;;;;25.90;34.92;100193.53;5082570;27;47959;-75
2022/08/14 08:45:42;;;;;;;;;7.00;7.00;;;;;25.92;35.02;100172.28;5078631;28;45330;-75
2022/08/14 08:48:07;;;;;;;;;7.00;7.00;;;;;26.04;35.16;100180.00;5081210;27;45289;-75
2022/08/14 08:50:36;;;;;;;;;8.33;8.33;;;;;26.12;34.97;100175.81;5080681;28;45532;-75
2022/08/14 08:53:08;;;;;;;;;8.33;8.33;;;;;26.17;34.83;100172.22;5081079;27;45430;-75
2022/08/14 08:55:37;;;;;;;;;7.33;7.33;;;;;26.27;34.04;100176.72;5080805;28;45340;-74
2022/08/14 08:58:10;;;;;;;;;7.67;7.67;;;;;26.26;34.37;100153.31;5081077;27;45383;-74
2022/08/14 09:00:37;;;;;;;;;7.67;6.67;;;;;26.41;34.50;100155.03;5080689;27;45480;-75
2022/08/14 09:03:04;;;;;;;;;8.33;8.33;;;;;26.54;34.01;100158.91;5081327;27;46810;-75
2022/08/14 09:05:31;;;;;;;;;7.67;7.00;;;;;26.58;34.22;100152.56;5081355;28;45501;-74
2022/08/14 09:08:17;;;;;;;;;9.00;9.00;;;;;26.80;33.64;100150.31;5080442;28;45386;-75
2022/08/14 09:10:43;;;;;;;;;8.00;8.00;;;;;26.92;33.93;100158.00;5081331;28;45248;-76
2022/08/14 09:13:12;;;;;;;;;9.00;9.00;;;;;27.01;33.94;100155.44;5081220;28;46255;-76
2022/08/14 09:15:39;;;;;;;;;9.00;9.00;;;;;27.15;33.78;100155.47;5066151;27;46432;-76
2022/08/14 09:18:05;;;;;;;;;9.33;9.33;;;;;27.24;32.85;100150.94;5063125;27;45530;-75
2022/08/14 09:20:31;;;;;;;;;7.00;7.00;;;;;27.28;33.10;100160.13;5060243;28;45871;-75
2022/08/14 09:22:57;;;;;;;;;9.67;9.33;;;;;27.37;32.98;100153.94;5060095;28;46307;-75
2022/08/14 09:25:23;;;;;;;;;7.00;7.00;;;;;27.43;33.63;100144.56;5070276;28;45471;-77
2022/08/14 09:27:49;;;;;;;;;6.00;6.00;;;;;27.47;33.11;100156.47;5076147;28;45407;-76
2022/08/14 09:30:15;;;;;;;;;8.67;8.67;;;;;27.55;33.42;100168.59;5070390;27;45603;-78
2022/08/14 09:33:02;;;;;;;;;8.00;8.00;;;;;27.58;33.27;100163.38;5081077;28;45343;-77
2022/08/14 09:35:47;;;;;;;;;7.00;7.00;;;;;27.64;33.54;100155.88;5081515;27;45401;-78
2022/08/14 09:38:27;;;;;;;;;8.00;8.00;;;;;27.70;32.92;100156.59;5081692;28;45349;-77
2022/08/14 09:41:23;;;;;;;;;8.33;8.33;;;;;27.80;33.35;100150.94;5081710;28;45228;-77
2022/08/14 09:43:57;;;;;;;;;10.00;10.00;;;;;27.91;32.73;100158.91;5071565;28;45445;-77
2022/08/14 09:46:26;;;;;;;;;9.33;9.33;;;;;27.97;33.04;100150.31;5060902;28;45394;-76
2022/08/14 09:49:05;;;;;;;;;7.67;7.67;;;;;28.12;32.72;100156.53;5061831;28;45243;-75
2022/08/14 09:51:34;;;;;;;;;9.67;9.67;;;;;28.16;32.94;100154.78;5080517;28;45472;-76
2022/08/14 09:54:11;;;;;;;;;10.67;10.00;;;;;28.29;32.26;100171.44;5078231;28;45793;-76
2022/08/14 09:56:47;;;;;;;;;11.67;11.67;;;;;28.37;33.08;100165.25;5080616;28;45357;-76
2022/08/14 09:59:20;;;;;;;;;13.33;12.33;;;;;28.46;32.20;100168.09;5080828;28;45334;-75
2022/08/14 10:01:47;;;;;;;;;9.33;9.00;;;;;28.53;32.40;100163.00;5079971;28;45233;-75
2022/08/14 10:04:24;;;;;;;;;8.67;8.67;;;;;28.66;33.04;100161.31;5076117;27;45785;-74
2022/08/14 10:06:50;;;;;;;;;8.33;8.33;;;;;28.78;32.55;100163.47;5059450;28;45410;-75
2022/08/14 10:09:17;;;;;;;;;10.00;10.00;;;;;28.96;31.99;100160.84;5059719;28;45342;-76
2022/08/14 10:11:54;;;;;;;;;9.00;9.00;;;;;29.05;32.20;100160.91;5059987;28;45504;-76
2022/08/14 10:14:25;;;;;;;;;8.67;8.67;;;;;29.15;32.82;100162.56;5078117;28;46201;-77
2022/08/14 10:16:54;;;;;;;;;8.00;8.00;;;;;29.23;33.21;100148.09;5071076;27;45388;-76
2022/08/14 10:19:22;;;;;;;;;11.00;11.00;;;;;29.30;32.43;100140.25;5064836;28;45426;-78
2022/08/14 10:22:00;;;;;;;;;10.67;10.67;;;;;29.39;31.95;100134.00;5080896;28;45331;-76
2022/08/14 10:24:29;;;;;;;;;10.33;10.33;;;;;29.41;31.86;100137.22;5080248;28;45310;-78
2022/08/14 10:26:57;;;;;;;;;9.67;8.33;;;;;29.40;32.19;100128.22;5080923;28;45354;-77
2022/08/14 10:29:37;;;;;;;;;13.67;13.67;;;;;29.57;32.05;100140.38;5080623;28;45322;-77
2022/08/14 10:32:03;;;;;;;;;10.67;10.67;;;;;29.71;32.09;100145.69;5080690;28;45437;-76
2022/08/14 10:34:38;;;;;;;;;12.67;11.67;;;;;29.84;32.37;100136.53;5080568;28;47776;-77
2022/08/14 10:37:07;;;;;;;;;12.67;10.67;;;;;30.13;32.03;100149.94;5080274;28;45291;-77
2022/08/14 10:39:35;;;;;;;;;12.33;12.33;;;;;30.38;31.64;100158.50;5080185;28;45342;-76
2022/08/14 10:42:06;;;;;;;;;15.33;15.33;;;;;30.54;31.68;100151.41;5080059;28;45460;-77
2022/08/14 10:44:38;;;;;;;;;7.67;7.67;;;;;30.72;31.00;100160.41;5080215;28;45650;-75
2022/08/14 10:47:12;;;;;;;;;9.00;9.00;;;;;30.81;30.61;100162.31;5074726;28;45341;-76
2022/08/14 10:49:48;;;;;;;;;8.00;7.33;;;;;30.89;30.50;100150.53;5073371;28;45457;-76
2022/08/14 10:52:23;;;;;;;;;8.67;8.00;;;;;30.99;30.69;100155.66;5080139;28;45170;-76
2022/08/14 10:54:49;;;;;;;;;9.67;9.33;;;;;31.03;30.62;100141.31;5079743;28;46121;-77
2022/08/14 10:57:17;;;;;;;;;8.00;8.00;;;;;31.17;30.67;100155.59;5070938;28;45475;-75
2022/08/14 10:59:54;;;;;;;;;8.00;7.67;;;;;31.25;30.73;100153.97;5064814;28;45434;-77
2022/08/14 11:02:29;;;;;;;;;8.00;8.00;;;;;31.39;30.60;100155.69;5060241;28;45378;-77
2022/08/14 11:05:17;;;;;;;;;8.00;8.00;;;;;31.49;29.66;100161.59;5061833;28;46005;-75
2022/08/14 11:07:55;;;;;;;;;8.00;8.00;;;;;31.51;30.00;100163.22;5076974;28;45492;-76
2022/08/14 11:10:24;;;;;;;;;9.67;9.67;;;;;31.52;30.17;100157.41;5078575;28;45808;-76
2022/08/14 11:12:55;;;;;;;;;10.00;8.33;;;;;31.56;30.48;100157.53;5071907;28;45342;-76
2022/08/14 11:15:23;;;;;;;;;7.00;6.67;;;;;31.60;30.18;100156.53;5063349;28;46403;-76
2022/08/14 11:17:50;;;;;;;;;9.00;8.67;;;;;31.67;30.28;100149.72;5060885;27;45456;-77
2022/08/14 11:20:18;;;;;;;;;8.00;8.00;;;;;31.69;30.41;100156.47;5062188;28;45393;-78
2022/08/14 11:22:44;;;;;;;;;8.33;8.33;;;;;31.69;30.38;100147.47;5079243;28;45371;-75
2022/08/14 11:25:14;;;;;;;;;8.67;8.67;;;;;31.85;29.68;100161.41;5076834;28;45690;-77
2022/08/14 11:27:41;;;;;;;;;9.67;8.33;;;;;31.85;30.03;100150.41;5078489;28;45335;-75
2022/08/14 11:30:11;;;;;;;;;12.67;8.67;;;;;31.97;30.37;100157.94;5078489;27;45412;-75
2022/08/14 11:32:43;;;;;;;;;7.33;7.33;;;;;32.03;30.19;100155.78;5074911;28;45704;-77
2022/08/14 11:35:15;;;;;;;;;8.33;7.33;;;;;32.15;30.36;100164.13;5077487;28;45443;-76
2022/08/14 11:37:52;;;;;;;;;10.67;10.00;;;;;32.25;30.54;100163.69;5079003;28;45478;-75
2022/08/14 11:40:18;;;;;;;;;7.33;7.33;;;;;32.31;30.30;100163.47;5079271;28;45310;-77
2022/08/14 11:42:46;;;;;;;;;11.67;11.00;;;;;32.23;30.24;100160.47;5079154;28;45805;-77
2022/08/14 11:45:11;;;;;;;;;9.33;9.33;;;;;32.21;30.18;100170.19;5076628;28;45284;-77
2022/08/14 11:47:37;;;;;;;;;10.67;9.67;;;;;32.12;30.16;100173.03;5079025;27;45269;-75
2022/08/14 11:50:23;;;;;;;;;10.00;10.00;;;;;32.03;31.00;100178.59;5078745;28;45307;-77